createdAt,value
2023-01-20T00:01:09.927Z,-2.09
2023-01-20T00:03:36.636Z,-2.12
2023-01-20T00:06:03.405Z,-2.12
2023-01-20T00:08:29.930Z,-2.09
2023-01-20T00:10:56.639Z,-2.08
2023-01-20T00:13:23.207Z,-2.25
2023-01-20T00:15:49.799Z,-2.35
2023-01-20T00:18:16.307Z,-2.37
2023-01-20T00:20:42.993Z,-2.43
2023-01-20T00:23:09.487Z,-2.50
2023-01-20T00:25:36.459Z,-2.50
2023-01-20T00:28:03.670Z,-2.44
2023-01-20T00:30:30.211Z,-2.40
2023-01-20T00:32:56.766Z,-2.43
2023-01-20T00:35:23.334Z,-2.45
2023-01-20T00:37:49.860Z,-2.50
2023-01-20T00:40:16.561Z,-2.48
2023-01-20T00:42:43.090Z,-2.45
2023-01-20T00:45:09.722Z,-2.43
2023-01-20T00:47:36.489Z,-2.47
2023-01-20T00:50:03.102Z,-2.47
2023-01-20T00:52:29.609Z,-2.39
2023-01-20T00:54:56.175Z,-2.37
2023-01-20T00:57:22.668Z,-2.40
2023-01-20T00:59:49.181Z,-2.38
2023-01-20T01:02:15.751Z,-2.39
2023-01-20T01:04:42.305Z,-2.42
2023-01-20T01:07:09.307Z,-2.20
2023-01-20T01:09:35.943Z,-2.21
2023-01-20T01:12:02.419Z,-2.24
2023-01-20T01:14:30.666Z,-2.28
2023-01-20T01:16:57.531Z,-2.29
2023-01-20T01:19:24.089Z,-2.26
2023-01-20T01:21:50.599Z,-2.21
2023-01-20T01:24:17.182Z,-2.14
2023-01-20T01:26:43.689Z,-2.15
2023-01-20T01:29:10.214Z,-2.17
2023-01-20T01:31:36.758Z,-2.14
2023-01-20T01:34:03.395Z,-2.25
2023-01-20T01:36:29.904Z,-2.31
2023-01-20T01:38:58.850Z,-2.38
2023-01-20T01:41:26.129Z,-2.42
2023-01-20T01:44:06.035Z,-2.42
2023-01-20T01:46:32.949Z,-2.41
2023-01-20T01:49:01.355Z,-2.44
2023-01-20T01:51:30.399Z,-2.50
2023-01-20T01:54:00.067Z,-2.54
2023-01-20T01:56:27.632Z,-2.55
2023-01-20T01:58:56.009Z,-2.56
2023-01-20T02:01:22.799Z,-2.56
2023-01-20T02:04:01.129Z,-2.58
2023-01-20T02:06:31.751Z,-2.57
2023-01-20T02:08:59.290Z,-2.58
2023-01-20T02:11:25.852Z,-2.61
2023-01-20T02:13:52.348Z,-2.61
2023-01-20T02:16:37.674Z,-2.64
2023-01-20T02:19:06.908Z,-2.65
2023-01-20T02:21:48.649Z,-2.67
2023-01-20T02:24:15.128Z,-2.69
2023-01-20T02:26:44.408Z,-2.67
2023-01-20T02:29:33.832Z,-2.68
2023-01-20T02:32:00.344Z,-2.73
2023-01-20T02:34:59.112Z,-2.72
2023-01-20T02:37:27.845Z,-2.77
2023-01-20T02:39:58.822Z,-2.75
2023-01-20T02:42:28.259Z,-2.74
2023-01-20T02:45:03.071Z,-2.74
2023-01-20T02:47:41.385Z,-2.77
2023-01-20T02:50:31.854Z,-2.81
2023-01-20T02:52:59.630Z,-2.86
2023-01-20T02:55:46.514Z,-2.85
2023-01-20T02:58:30.367Z,-2.83
2023-01-20T03:00:59.955Z,-2.85
2023-01-20T03:03:30.687Z,-2.85
2023-01-20T03:06:00.009Z,-2.89
2023-01-20T03:08:28.764Z,-2.93
2023-01-20T03:10:58.103Z,-2.96
2023-01-20T03:13:27.430Z,-2.96
2023-01-20T03:15:57.976Z,-3.01
2023-01-20T03:18:24.682Z,-3.03
2023-01-20T03:20:51.632Z,-3.06
2023-01-20T03:23:18.133Z,-3.07
2023-01-20T03:25:45.979Z,-3.10
2023-01-20T03:28:13.260Z,-3.11
2023-01-20T03:30:39.843Z,-3.12
2023-01-20T03:33:06.479Z,-3.12
2023-01-20T03:35:34.337Z,-3.10
2023-01-20T03:38:00.877Z,-3.10
2023-01-20T03:40:31.727Z,-3.12
2023-01-20T03:46:25.403Z,-3.28
2023-01-20T03:48:58.220Z,-3.25
2023-01-20T03:51:28.005Z,-3.23
2023-01-20T03:53:58.346Z,-3.20
2023-01-20T03:56:40.272Z,-3.20
2023-01-20T03:59:09.189Z,-3.25
2023-01-20T04:01:40.987Z,-3.30
2023-01-20T04:04:09.992Z,-3.28
2023-01-20T04:06:37.500Z,-3.30
2023-01-20T04:09:09.659Z,-3.30
2023-01-20T04:11:36.190Z,-3.29
2023-01-20T04:14:02.978Z,-3.26
2023-01-20T04:16:29.465Z,-3.26
2023-01-20T04:18:56.061Z,-3.30
2023-01-20T04:21:37.122Z,-3.30
2023-01-20T04:24:15.625Z,-3.31
2023-01-20T04:26:42.634Z,-3.31
2023-01-20T04:29:12.028Z,-3.28
2023-01-20T04:31:39.797Z,-3.18
2023-01-20T04:34:08.223Z,-3.26
2023-01-20T04:36:34.712Z,-3.22
2023-01-20T04:39:01.219Z,-3.23
2023-01-20T04:41:27.729Z,-3.22
2023-01-20T04:43:54.299Z,-3.25
2023-01-20T04:46:20.951Z,-3.29
2023-01-20T04:48:47.517Z,-3.31
2023-01-20T04:51:14.255Z,-3.32
2023-01-20T04:53:40.858Z,-3.32
2023-01-20T04:56:11.935Z,-3.31
2023-01-20T04:58:38.845Z,-3.35
2023-01-20T05:01:05.628Z,-3.39
2023-01-20T05:03:32.180Z,-3.36
2023-01-20T05:05:58.701Z,-3.19
2023-01-20T05:08:25.258Z,-3.15
2023-01-20T05:10:51.811Z,-3.26
2023-01-20T05:13:18.668Z,-3.26
2023-01-20T05:15:45.216Z,-3.26
2023-01-20T05:18:11.717Z,-3.26
2023-01-20T05:20:38.323Z,-3.26
2023-01-20T05:23:04.991Z,-3.19
2023-01-20T05:25:31.509Z,-3.15
2023-01-20T05:27:58.839Z,-2.96
2023-01-20T05:30:25.432Z,-2.97
2023-01-20T05:32:52.291Z,-2.99
2023-01-20T05:35:18.803Z,-3.06
2023-01-20T05:37:45.352Z,-3.08
2023-01-20T05:40:12.093Z,-3.04
2023-01-20T05:42:38.621Z,-3.01
2023-01-20T05:45:05.411Z,-2.99
2023-01-20T05:47:31.935Z,-3.03
2023-01-20T05:49:58.409Z,-2.97
2023-01-20T05:52:24.921Z,-2.92
2023-01-20T05:54:51.504Z,-2.97
2023-01-20T05:57:18.446Z,-2.92
2023-01-20T05:59:47.557Z,-2.96
2023-01-20T06:02:18.741Z,-3.02
2023-01-20T06:04:48.977Z,-2.98
2023-01-20T06:07:16.003Z,-2.94
2023-01-20T06:09:42.513Z,-2.74
2023-01-20T06:12:09.099Z,-2.79
2023-01-20T06:14:35.603Z,-2.82
2023-01-20T06:17:02.155Z,-2.75
2023-01-20T06:19:28.658Z,-2.69
2023-01-20T06:21:55.205Z,-2.74
2023-01-20T06:24:21.733Z,-2.77
2023-01-20T06:26:50.121Z,-2.79
2023-01-20T06:29:16.737Z,-2.72
2023-01-20T06:31:44.527Z,-2.78
2023-01-20T06:34:11.645Z,-2.76
2023-01-20T06:36:38.255Z,-2.79
2023-01-20T06:39:04.796Z,-2.82
2023-01-20T06:41:31.314Z,-2.82
2023-01-20T06:43:58.176Z,-2.82
2023-01-20T06:46:24.762Z,-2.80
2023-01-20T06:48:51.447Z,-2.84
2023-01-20T06:51:19.670Z,-2.78
2023-01-20T06:53:46.836Z,-2.77
2023-01-20T06:56:13.893Z,-2.69
2023-01-20T06:58:40.635Z,-2.76
2023-01-20T07:01:08.970Z,-2.69
2023-01-20T07:03:36.019Z,-2.70
2023-01-20T07:06:04.072Z,-2.74
2023-01-20T07:08:30.811Z,-2.70
2023-01-20T07:10:57.548Z,-2.59
2023-01-20T07:13:24.094Z,-2.58
2023-01-20T07:15:50.596Z,-2.67
2023-01-20T07:18:17.082Z,-2.65
2023-01-20T07:20:43.933Z,-2.70
2023-01-20T07:23:10.432Z,-2.68
2023-01-20T07:25:38.174Z,-2.62
2023-01-20T07:28:05.059Z,-2.61
2023-01-20T07:30:31.639Z,-2.56
2023-01-20T07:32:58.174Z,-2.65
2023-01-20T07:35:24.693Z,-2.67
2023-01-20T07:37:51.198Z,-2.69
2023-01-20T07:40:17.932Z,-2.67
2023-01-20T07:42:44.443Z,-2.66
2023-01-20T07:45:11.032Z,-2.64
2023-01-20T07:47:37.537Z,-2.59
2023-01-20T07:50:04.235Z,-2.58
2023-01-20T07:52:30.737Z,-2.49
2023-01-20T07:54:57.213Z,-2.45
2023-01-20T07:57:23.810Z,-2.38
2023-01-20T07:59:50.314Z,-2.35
2023-01-20T08:02:16.835Z,-2.30
2023-01-20T08:04:43.396Z,-2.25
2023-01-20T08:07:09.939Z,-2.15
2023-01-20T08:09:36.455Z,-2.07
2023-01-20T08:12:03.040Z,-1.98
2023-01-20T08:14:29.543Z,-1.87
2023-01-20T08:16:56.066Z,-1.88
2023-01-20T08:19:22.579Z,-1.85
2023-01-20T08:21:49.118Z,-1.74
2023-01-20T08:24:15.661Z,-1.73
2023-01-20T08:26:42.190Z,-1.71
2023-01-20T08:29:10.161Z,-1.67
2023-01-20T08:31:36.987Z,-1.61
2023-01-20T08:34:03.745Z,-1.61
2023-01-20T08:36:32.294Z,-1.57
2023-01-20T08:38:59.741Z,-1.53
2023-01-20T08:41:29.180Z,-1.54
2023-01-20T08:43:55.787Z,-1.48
2023-01-20T08:46:22.753Z,-1.45
2023-01-20T08:48:49.978Z,-1.45
2023-01-20T08:51:20.250Z,-1.47
2023-01-20T08:53:46.805Z,-1.47
2023-01-20T08:56:13.655Z,-1.45
2023-01-20T08:58:40.599Z,-1.37
2023-01-20T09:01:11.122Z,-1.40
2023-01-20T09:03:37.744Z,-1.35
2023-01-20T09:06:04.623Z,-1.32
2023-01-20T09:08:31.177Z,-1.33
2023-01-20T09:11:11.439Z,-1.34
2023-01-20T09:13:38.219Z,-1.34
2023-01-20T09:16:05.171Z,-1.31
2023-01-20T09:18:32.419Z,-1.27
2023-01-20T09:20:59.649Z,-1.24
2023-01-20T09:23:26.517Z,-1.20
2023-01-20T09:25:53.106Z,-1.20
2023-01-20T09:28:19.660Z,-1.14
2023-01-20T09:30:46.167Z,-1.09
2023-01-20T09:33:12.822Z,-1.02
2023-01-20T09:35:39.402Z,-0.95
2023-01-20T09:38:24.589Z,-0.67
2023-01-20T09:41:17.937Z,-0.78
2023-01-20T09:44:00.664Z,-0.80
2023-01-20T09:46:39.510Z,-0.80
2023-01-20T09:49:37.035Z,-0.80
2023-01-20T09:52:29.762Z,-0.78
2023-01-20T09:55:10.329Z,-0.77
2023-01-20T09:57:40.243Z,-0.77
2023-01-20T10:00:17.415Z,-0.73
2023-01-20T10:02:48.645Z,-0.76
2023-01-20T10:05:18.752Z,-0.73
2023-01-20T10:07:55.729Z,-0.71
2023-01-20T10:10:24.979Z,-0.71
2023-01-20T10:12:51.496Z,-0.70
2023-01-20T10:15:37.093Z,-0.67
2023-01-20T10:18:10.156Z,-0.61
2023-01-20T10:20:40.899Z,-0.59
2023-01-20T10:23:10.130Z,-0.60
2023-01-20T10:25:44.219Z,-0.59
2023-01-20T10:28:26.043Z,-0.50
2023-01-20T10:30:52.714Z,-0.57
2023-01-20T10:33:23.942Z,-0.57
2023-01-20T10:35:52.512Z,-0.55
2023-01-20T10:38:31.872Z,-0.57
2023-01-20T10:41:21.556Z,-0.53
2023-01-20T10:43:48.097Z,-0.56
2023-01-20T10:46:17.552Z,-0.58
2023-01-20T10:48:50.317Z,-0.57
2023-01-20T10:51:20.569Z,-0.56
2023-01-20T10:53:59.051Z,-0.55
2023-01-20T10:56:51.766Z,-0.56
2023-01-20T10:59:21.735Z,-0.54
2023-01-20T11:01:59.402Z,-0.51
2023-01-20T11:04:37.344Z,-0.54
2023-01-20T11:07:08.368Z,-0.51
2023-01-20T11:09:37.676Z,-0.50
2023-01-20T11:12:07.334Z,-0.47
2023-01-20T11:14:34.286Z,-0.46
2023-01-20T11:17:04.587Z,-0.41
2023-01-20T11:19:46.804Z,-0.37
2023-01-20T11:22:15.049Z,-0.34
2023-01-20T11:24:42.934Z,-0.32
2023-01-20T11:27:24.260Z,-0.34
2023-01-20T11:30:01.260Z,-0.18
2023-01-20T11:32:35.210Z,-0.28
2023-01-20T11:35:18.057Z,-0.33
2023-01-20T11:37:44.828Z,-0.30
2023-01-20T11:40:22.605Z,-0.28
2023-01-20T11:42:49.641Z,-0.22
2023-01-20T11:45:24.041Z,-0.22
2023-01-20T11:48:00.444Z,-0.24
2023-01-20T11:50:31.628Z,-0.22
2023-01-20T11:53:18.474Z,-0.24
2023-01-20T11:55:46.881Z,-0.26
2023-01-20T11:58:17.366Z,-0.21
2023-01-20T12:00:44.197Z,-0.23
2023-01-20T12:03:10.743Z,-0.24
2023-01-20T12:05:44.057Z,-0.22
2023-01-20T12:08:14.307Z,-0.22
2023-01-20T12:10:41.270Z,-0.22
2023-01-20T12:13:20.061Z,-0.23
2023-01-20T12:15:53.129Z,-0.21
2023-01-20T12:18:50.353Z,-0.22
2023-01-20T12:21:31.966Z,-0.21
2023-01-20T12:24:11.684Z,-0.22
2023-01-20T12:26:38.257Z,-0.24
2023-01-20T12:29:19.632Z,-0.27
2023-01-20T12:31:49.181Z,-0.28
2023-01-20T12:34:17.639Z,-0.31
2023-01-20T12:36:46.950Z,-0.32
2023-01-20T12:39:36.475Z,-0.30
2023-01-20T12:42:12.099Z,-0.36
2023-01-20T12:44:46.248Z,-0.32
2023-01-20T12:47:18.900Z,-0.34
2023-01-20T12:49:54.693Z,-0.37
2023-01-20T12:52:32.797Z,-0.39
2023-01-20T12:55:11.673Z,-0.36
2023-01-20T12:57:38.137Z,-0.36
2023-01-20T13:00:11.087Z,-0.37
2023-01-20T13:03:00.665Z,-0.37
2023-01-20T13:05:46.055Z,-0.35
2023-01-20T13:08:15.427Z,-0.39
2023-01-20T13:11:01.292Z,-0.39
2023-01-20T13:13:55.885Z,-0.36
2023-01-20T13:16:37.055Z,-0.32
2023-01-20T13:19:19.763Z,-0.31
2023-01-20T13:21:59.521Z,-0.35
2023-01-20T13:24:34.364Z,-0.38
2023-01-20T13:27:01.816Z,-0.38
2023-01-20T13:29:37.228Z,-0.39
2023-01-20T13:32:04.881Z,-0.40
2023-01-20T13:34:33.330Z,-0.38
2023-01-20T13:37:11.917Z,-0.36
2023-01-20T13:39:43.088Z,-0.33
2023-01-20T13:42:28.292Z,-0.33
2023-01-20T13:45:22.595Z,-0.34
2023-01-20T13:47:54.300Z,0.09
2023-01-20T13:50:22.902Z,-0.04
2023-01-20T13:52:52.562Z,-0.16
2023-01-20T13:55:29.286Z,-0.24
2023-01-20T13:57:55.848Z,-0.28
2023-01-20T14:00:22.818Z,-0.30
2023-01-20T14:02:50.426Z,-0.31
2023-01-20T14:05:21.793Z,-0.32
2023-01-20T14:07:48.325Z,-0.33
2023-01-20T14:10:15.254Z,-0.23
2023-01-20T14:12:41.984Z,-0.31
2023-01-20T14:15:22.912Z,-0.29
2023-01-20T14:17:53.314Z,-0.31
2023-01-20T14:20:23.643Z,-0.31
2023-01-20T14:22:50.278Z,-0.34
2023-01-20T14:25:21.864Z,-0.36
2023-01-20T14:27:48.353Z,-0.30
2023-01-20T14:30:17.111Z,-0.24
2023-01-20T14:32:43.807Z,-0.25
2023-01-20T14:35:15.195Z,-0.27
2023-01-20T14:37:41.842Z,-0.15
2023-01-20T14:40:11.369Z,-0.23
2023-01-20T14:42:41.685Z,-0.28
2023-01-20T14:45:18.670Z,-0.33
2023-01-20T14:47:45.577Z,-0.39
2023-01-20T14:50:13.810Z,-0.42
2023-01-20T14:52:40.776Z,-0.45
2023-01-20T14:55:25.783Z,-0.43
2023-01-20T14:57:52.505Z,-0.46
2023-01-20T15:00:19.495Z,-0.48
2023-01-20T15:03:05.260Z,-0.47
2023-01-20T15:05:38.004Z,-0.48
2023-01-20T15:08:05.637Z,-0.52
2023-01-20T15:10:32.493Z,-0.49
2023-01-20T15:12:59.644Z,-0.55
2023-01-20T15:15:28.098Z,-0.55
2023-01-20T15:18:05.143Z,-0.53
2023-01-20T15:20:33.310Z,-0.54
2023-01-20T15:23:00.133Z,-0.53
2023-01-20T15:25:27.711Z,-0.55
2023-01-20T15:27:54.805Z,-0.53
2023-01-20T15:30:24.339Z,-0.57
2023-01-20T15:32:51.955Z,-0.55
2023-01-20T15:35:23.111Z,-0.57
2023-01-20T15:37:50.131Z,-0.64
2023-01-20T15:40:19.925Z,-0.63
2023-01-20T15:42:47.400Z,-0.64
2023-01-20T15:45:15.053Z,-0.64
2023-01-20T15:47:42.282Z,-0.71
2023-01-20T15:50:15.100Z,-0.70
2023-01-20T15:52:41.969Z,-0.75
2023-01-20T15:55:12.194Z,-0.77
2023-01-20T15:57:38.701Z,-0.68
2023-01-20T16:00:06.672Z,-0.70
2023-01-20T16:02:33.221Z,-0.73
2023-01-20T16:04:59.788Z,-0.63
2023-01-20T16:07:27.978Z,-0.69
2023-01-20T16:09:54.554Z,-0.73
2023-01-20T16:12:21.124Z,-0.75
2023-01-20T16:14:47.666Z,-0.71
2023-01-20T16:17:15.639Z,-0.69
2023-01-20T16:19:42.545Z,-0.72
2023-01-20T16:22:10.574Z,-0.76
2023-01-20T16:24:37.998Z,-0.74
2023-01-20T16:27:05.308Z,-0.75
2023-01-20T16:29:31.866Z,-0.75
2023-01-20T16:31:58.474Z,-0.75
2023-01-20T16:34:25.067Z,-0.58
2023-01-20T16:36:51.580Z,-0.59
2023-01-20T16:39:18.104Z,-0.62
2023-01-20T16:41:47.187Z,-0.63
2023-01-20T16:44:13.691Z,-0.70
2023-01-20T16:46:40.249Z,-0.71
2023-01-20T16:49:06.775Z,-0.64
2023-01-20T16:51:33.687Z,-0.64
2023-01-20T16:54:00.304Z,-0.70
2023-01-20T16:56:30.638Z,-0.68
2023-01-20T16:58:57.989Z,-0.69
2023-01-20T17:01:25.273Z,-0.67
2023-01-20T17:03:53.012Z,-0.64
2023-01-20T17:06:20.748Z,-0.66
2023-01-20T17:08:48.616Z,-0.61
2023-01-20T17:11:25.776Z,-0.64
2023-01-20T17:13:52.589Z,-0.59
2023-01-20T17:16:19.755Z,-0.60
2023-01-20T17:18:50.208Z,-0.67
2023-01-20T17:21:17.346Z,-0.66
2023-01-20T17:23:43.909Z,-0.70
2023-01-20T17:26:10.453Z,-0.61
2023-01-20T17:28:36.947Z,-0.56
2023-01-20T17:31:04.414Z,-0.64
2023-01-20T17:33:31.014Z,-0.64
2023-01-20T17:36:01.581Z,-0.62
2023-01-20T17:38:29.148Z,-0.57
2023-01-20T17:41:00.162Z,-0.52
2023-01-20T17:43:26.680Z,-0.58
2023-01-20T17:45:53.195Z,-0.65
2023-01-20T17:48:19.767Z,-0.66
2023-01-20T17:50:46.298Z,-0.61
2023-01-20T17:53:12.989Z,-0.58
2023-01-20T17:55:39.484Z,-0.59
2023-01-20T17:58:06.023Z,-0.55
2023-01-20T18:00:32.523Z,-0.61
2023-01-20T18:02:59.081Z,-0.60
2023-01-20T18:05:27.057Z,-0.59
2023-01-20T18:07:53.571Z,-0.64
2023-01-20T18:10:20.103Z,-0.64
2023-01-20T18:12:46.676Z,-0.63
2023-01-20T18:15:13.259Z,-0.47
2023-01-20T18:17:43.364Z,-0.56
2023-01-20T18:20:11.120Z,-0.59
2023-01-20T18:22:37.675Z,-0.51
2023-01-20T18:25:04.285Z,-0.55
2023-01-20T18:27:30.834Z,-0.54
2023-01-20T18:29:57.362Z,-0.52
2023-01-20T18:32:24.399Z,-0.40
2023-01-20T18:34:50.963Z,-0.44
2023-01-20T18:37:17.432Z,-0.43
2023-01-20T18:39:44.108Z,-0.40
2023-01-20T18:42:10.604Z,-0.46
2023-01-20T18:44:37.119Z,-0.53
2023-01-20T18:47:03.726Z,-0.56
2023-01-20T18:49:30.288Z,-0.49
2023-01-20T18:51:56.796Z,-0.50
2023-01-20T18:54:25.199Z,-0.47
2023-01-20T18:56:51.884Z,-0.43
2023-01-20T18:59:18.397Z,-0.42
2023-01-20T19:01:45.045Z,-0.39
2023-01-20T19:04:12.504Z,-0.38
2023-01-20T19:06:40.418Z,-0.46
2023-01-20T19:09:07.626Z,-0.44
2023-01-20T19:11:36.363Z,-0.46
2023-01-20T19:14:03.304Z,-0.44
2023-01-20T19:16:36.890Z,-0.46
2023-01-20T19:19:04.650Z,-0.47
2023-01-20T19:21:32.545Z,-0.37
2023-01-20T19:24:01.401Z,-0.47
2023-01-20T19:26:28.176Z,-0.41
2023-01-20T19:29:05.725Z,-0.41
2023-01-20T19:31:33.799Z,-0.18
2023-01-20T19:34:00.753Z,-0.42
2023-01-20T19:36:27.324Z,-0.48
2023-01-20T19:38:54.017Z,-0.55
2023-01-20T19:41:22.984Z,-0.65
2023-01-20T19:43:55.439Z,-0.72
2023-01-20T19:46:24.440Z,-0.67
2023-01-20T19:48:51.953Z,-0.65
2023-01-20T19:51:19.810Z,-0.55
2023-01-20T19:53:47.101Z,-0.58
2023-01-20T19:56:15.393Z,-0.57
2023-01-20T19:58:42.482Z,-0.55
2023-01-20T20:01:14.141Z,-0.58
2023-01-20T20:03:40.672Z,-0.59
2023-01-20T20:06:07.996Z,-0.70
2023-01-20T20:08:36.317Z,-0.69
2023-01-20T20:11:03.033Z,-0.74
2023-01-20T20:13:29.559Z,-0.74
2023-01-20T20:16:02.638Z,-0.75
2023-01-20T20:18:29.201Z,-0.85
2023-01-20T20:20:55.741Z,-0.74
2023-01-20T20:23:22.560Z,-0.75
2023-01-20T20:25:49.874Z,-0.67
2023-01-20T20:28:16.421Z,-0.76
2023-01-20T20:30:43.274Z,-0.74
2023-01-20T20:33:09.783Z,-0.86
2023-01-20T20:35:36.780Z,-0.94
2023-01-20T20:38:03.840Z,-0.93
2023-01-20T20:40:30.555Z,-0.96
2023-01-20T20:42:57.142Z,-0.98
2023-01-20T20:45:23.668Z,-0.98
2023-01-20T20:47:50.159Z,-1.01
2023-01-20T20:50:17.176Z,-1.13
2023-01-20T20:52:46.239Z,-1.22
2023-01-20T20:55:13.065Z,-1.25
2023-01-20T20:57:39.684Z,-1.17
2023-01-20T21:00:06.605Z,-1.23
2023-01-20T21:02:33.832Z,-1.27
2023-01-20T21:05:00.444Z,-1.28
2023-01-20T21:07:26.957Z,-1.28
2023-01-20T21:09:53.516Z,-1.34
2023-01-20T21:12:20.055Z,-1.39
2023-01-20T21:14:46.528Z,-1.21
2023-01-20T21:17:13.103Z,-1.14
2023-01-20T21:19:39.698Z,-1.06
2023-01-20T21:22:06.282Z,-0.92
2023-01-20T21:24:32.854Z,-0.94
2023-01-20T21:27:00.580Z,-0.88
2023-01-20T21:29:27.681Z,-0.93
2023-01-20T21:31:54.339Z,-0.85
2023-01-20T21:34:20.920Z,-0.82
2023-01-20T21:36:47.423Z,-0.76
2023-01-20T21:39:15.209Z,-0.83
2023-01-20T21:41:42.199Z,-0.79
2023-01-20T21:44:32.976Z,-0.92
2023-01-20T21:47:00.934Z,-1.05
2023-01-20T21:49:46.475Z,-1.12
2023-01-20T21:52:33.094Z,-1.10
2023-01-20T21:54:59.699Z,-1.16
2023-01-20T21:57:26.295Z,-1.12
2023-01-20T21:59:52.828Z,-1.13
2023-01-20T22:02:19.489Z,-0.99
2023-01-20T22:04:46.276Z,-1.02
2023-01-20T22:07:13.506Z,-1.10
2023-01-20T22:09:40.096Z,-1.21
2023-01-20T22:12:07.141Z,-1.30
2023-01-20T22:14:33.652Z,-1.35
2023-01-20T22:17:00.276Z,-1.39
2023-01-20T22:19:27.192Z,-1.21
2023-01-20T22:21:56.907Z,-1.15
2023-01-20T22:24:23.552Z,-0.98
2023-01-20T22:26:50.070Z,-1.11
2023-01-20T22:29:17.565Z,-1.14
2023-01-20T22:31:44.668Z,-0.96
2023-01-20T22:34:11.403Z,-0.96
2023-01-20T22:36:37.968Z,-0.97
2023-01-20T22:39:06.153Z,-1.06
2023-01-20T22:41:32.666Z,-1.16
2023-01-20T22:43:59.382Z,-1.08
2023-01-20T22:46:27.166Z,-1.17
2023-01-20T22:48:55.347Z,-1.23
2023-01-20T22:51:22.657Z,-1.22
2023-01-20T22:53:49.657Z,-1.27
2023-01-20T22:56:18.314Z,-0.96
2023-01-20T22:58:45.218Z,-1.09
2023-01-20T23:01:22.317Z,-1.12
2023-01-20T23:03:53.043Z,-1.20
2023-01-20T23:06:19.662Z,-1.24
2023-01-20T23:08:46.131Z,-1.31
2023-01-20T23:11:14.219Z,-1.36
2023-01-20T23:13:40.991Z,-1.38
2023-01-20T23:16:10.062Z,-1.39
2023-01-20T23:18:36.861Z,-1.38
2023-01-20T23:21:06.024Z,-1.29
2023-01-20T23:23:32.922Z,-1.32
2023-01-20T23:26:12.466Z,-1.43
2023-01-20T23:28:38.963Z,-1.45
2023-01-20T23:31:06.860Z,-1.44
2023-01-20T23:33:33.679Z,-1.52
2023-01-20T23:36:04.303Z,-1.56
2023-01-20T23:38:31.216Z,-1.65
2023-01-20T23:40:58.153Z,-1.67
2023-01-20T23:43:24.648Z,-1.68
2023-01-20T23:45:51.244Z,-1.57
2023-01-20T23:48:18.168Z,-1.43
2023-01-20T23:50:45.735Z,-1.48
2023-01-20T23:53:14.537Z,-1.51
2023-01-20T23:55:41.026Z,-1.63
2023-01-20T23:58:07.506Z,-1.61
